sensor_id;sensor_type;location;lat;lon;timestamp;pressure;altitude;pressure_sealevel;temperature;humidity
80749;BME280;70145;53.746;9.970;2023-11-21T00:00:45;100753.84;;;6.17;67.19
80749;BME280;70145;53.746;9.970;2023-11-21T00:03:11;100754.69;;;6.18;66.69
80749;BME280;70145;53.746;9.970;2023-11-21T00:05:40;100764.81;;;6.00;67.53
80749;BME280;70145;53.746;9.970;2023-11-21T00:08:07;100767.91;;;6.07;67.24
80749;BME280;70145;53.746;9.970;2023-11-21T00:10:33;100769.91;;;6.03;67.16
80749;BME280;70145;53.746;9.970;2023-11-21T00:12:59;100774.44;;;6.03;66.92
80749;BME280;70145;53.746;9.970;2023-11-21T00:15:24;100778.91;;;6.02;66.98
80749;BME280;70145;53.746;9.970;2023-11-21T00:17:51;100778.91;;;6.02;67.10
80749;BME280;70145;53.746;9.970;2023-11-21T00:20:17;100789.59;;;6.02;66.43
80749;BME280;70145;53.746;9.970;2023-11-21T00:22:42;100787.31;;;5.96;66.74
80749;BME280;70145;53.746;9.970;2023-11-21T00:25:08;100794.13;;;6.02;66.63
80749;BME280;70145;53.746;9.970;2023-11-21T00:27:35;100793.25;;;6.01;66.27
80749;BME280;70145;53.746;9.970;2023-11-21T00:30:00;100800.06;;;5.93;66.85
80749;BME280;70145;53.746;9.970;2023-11-21T00:32:25;100804.69;;;6.03;66.33
80749;BME280;70145;53.746;9.970;2023-11-21T00:34:51;100805.50;;;5.77;66.86
80749;BME280;70145;53.746;9.970;2023-11-21T00:37:16;100805.31;;;5.80;67.00
80749;BME280;70145;53.746;9.970;2023-11-21T00:39:41;100802.19;;;5.74;67.32
80749;BME280;70145;53.746;9.970;2023-11-21T00:42:06;100810.47;;;5.83;66.63
80749;BME280;70145;53.746;9.970;2023-11-21T00:44:32;100816.09;;;5.93;66.18
80749;BME280;70145;53.746;9.970;2023-11-21T00:46:59;100810.28;;;5.72;67.45
80749;BME280;70145;53.746;9.970;2023-11-21T00:49:24;100812.78;;;5.75;66.83
80749;BME280;70145;53.746;9.970;2023-11-21T00:51:50;100816.41;;;5.74;66.73
80749;BME280;70145;53.746;9.970;2023-11-21T00:54:15;100813.50;;;5.77;66.51
80749;BME280;70145;53.746;9.970;2023-11-21T00:56:42;100814.88;;;5.70;66.93
80749;BME280;70145;53.746;9.970;2023-11-21T00:59:07;100820.41;;;5.67;66.58
80749;BME280;70145;53.746;9.970;2023-11-21T01:01:33;100824.81;;;5.68;66.35
80749;BME280;70145;53.746;9.970;2023-11-21T01:03:58;100831.88;;;5.69;66.35
80749;BME280;70145;53.746;9.970;2023-11-21T01:06:23;100832.81;;;5.68;66.51
80749;BME280;70145;53.746;9.970;2023-11-21T01:08:48;100840.16;;;5.79;66.10
80749;BME280;70145;53.746;9.970;2023-11-21T01:11:14;100836.06;;;5.73;66.28
80749;BME280;70145;53.746;9.970;2023-11-21T01:13:40;100835.47;;;5.82;65.86
80749;BME280;70145;53.746;9.970;2023-11-21T01:16:07;100837.97;;;5.85;65.84
80749;BME280;70145;53.746;9.970;2023-11-21T01:18:32;100845.97;;;5.85;65.73
80749;BME280;70145;53.746;9.970;2023-11-21T01:20:58;100844.28;;;5.84;65.45
80749;BME280;70145;53.746;9.970;2023-11-21T01:23:25;100843.75;;;5.92;65.44
80749;BME280;70145;53.746;9.970;2023-11-21T01:25:50;100845.19;;;5.83;65.69
80749;BME280;70145;53.746;9.970;2023-11-21T01:28:16;100849.19;;;5.90;65.44
80749;BME280;70145;53.746;9.970;2023-11-21T01:30:42;100861.63;;;5.91;65.18
80749;BME280;70145;53.746;9.970;2023-11-21T01:33:07;100865.81;;;5.95;65.15
80749;BME280;70145;53.746;9.970;2023-11-21T01:35:33;100872.78;;;5.98;65.15
80749;BME280;70145;53.746;9.970;2023-11-21T01:37:59;100885.31;;;5.97;65.15
80749;BME280;70145;53.746;9.970;2023-11-21T01:40:24;100878.69;;;5.89;65.11
80749;BME280;70145;53.746;9.970;2023-11-21T01:42:49;100880.72;;;5.85;65.51
80749;BME280;70145;53.746;9.970;2023-11-21T01:45:15;100887.03;;;5.84;65.38
80749;BME280;70145;53.746;9.970;2023-11-21T01:47:41;100893.91;;;5.88;65.44
80749;BME280;70145;53.746;9.970;2023-11-21T01:50:08;100892.19;;;5.87;65.13
80749;BME280;70145;53.746;9.970;2023-11-21T01:52:36;100889.19;;;5.92;64.76
80749;BME280;70145;53.746;9.970;2023-11-21T01:55:02;100888.47;;;5.90;64.47
80749;BME280;70145;53.746;9.970;2023-11-21T01:57:28;100900.09;;;5.89;64.27
80749;BME280;70145;53.746;9.970;2023-11-21T01:59:54;100905.75;;;5.84;64.33
80749;BME280;70145;53.746;9.970;2023-11-21T02:02:21;100905.56;;;5.87;64.42
80749;BME280;70145;53.746;9.970;2023-11-21T02:04:46;100907.16;;;5.76;63.98
80749;BME280;70145;53.746;9.970;2023-11-21T02:07:11;100909.72;;;5.77;63.93
80749;BME280;70145;53.746;9.970;2023-11-21T02:09:37;100916.53;;;5.83;63.88
80749;BME280;70145;53.746;9.970;2023-11-21T02:12:07;100913.75;;;5.84;63.96
80749;BME280;70145;53.746;9.970;2023-11-21T02:14:34;100922.72;;;5.83;63.91
80749;BME280;70145;53.746;9.970;2023-11-21T02:16:59;100920.31;;;5.79;64.02
80749;BME280;70145;53.746;9.970;2023-11-21T02:19:26;100920.50;;;5.76;63.64
80749;BME280;70145;53.746;9.970;2023-11-21T02:21:52;100932.06;;;5.62;63.94
80749;BME280;70145;53.746;9.970;2023-11-21T02:24:21;100929.59;;;5.73;63.99
80749;BME280;70145;53.746;9.970;2023-11-21T02:26:47;100932.44;;;5.70;64.01
80749;BME280;70145;53.746;9.970;2023-11-21T02:29:13;100935.91;;;5.72;63.75
80749;BME280;70145;53.746;9.970;2023-11-21T02:31:39;100950.22;;;5.71;63.49
80749;BME280;70145;53.746;9.970;2023-11-21T02:34:13;100944.78;;;5.73;63.36
80749;BME280;70145;53.746;9.970;2023-11-21T02:36:39;100948.97;;;5.77;63.49
80749;BME280;70145;53.746;9.970;2023-11-21T02:39:04;100945.53;;;5.75;63.37
80749;BME280;70145;53.746;9.970;2023-11-21T02:41:29;100949.06;;;5.75;63.50
80749;BME280;70145;53.746;9.970;2023-11-21T02:43:55;100955.38;;;5.74;63.50
80749;BME280;70145;53.746;9.970;2023-11-21T02:46:20;100957.84;;;5.77;62.96
80749;BME280;70145;53.746;9.970;2023-11-21T02:48:45;100956.22;;;5.75;63.15
80749;BME280;70145;53.746;9.970;2023-11-21T02:51:11;100958.97;;;5.73;63.17
80749;BME280;70145;53.746;9.970;2023-11-21T02:53:36;100959.75;;;5.75;62.85
80749;BME280;70145;53.746;9.970;2023-11-21T02:56:04;100952.06;;;5.55;63.00
80749;BME280;70145;53.746;9.970;2023-11-21T02:58:29;100957.97;;;5.60;63.31
80749;BME280;70145;53.746;9.970;2023-11-21T03:00:55;100963.16;;;5.63;63.04
80749;BME280;70145;53.746;9.970;2023-11-21T03:03:21;100970.91;;;5.68;63.12
80749;BME280;70145;53.746;9.970;2023-11-21T03:05:48;100964.69;;;5.67;62.79
80749;BME280;70145;53.746;9.970;2023-11-21T03:08:14;100968.50;;;5.63;63.21
80749;BME280;70145;53.746;9.970;2023-11-21T03:10:39;100969.28;;;5.65;63.20
80749;BME280;70145;53.746;9.970;2023-11-21T03:13:04;100978.31;;;5.63;62.86
80749;BME280;70145;53.746;9.970;2023-11-21T03:15:29;100975.38;;;5.67;63.14
80749;BME280;70145;53.746;9.970;2023-11-21T03:17:55;100982.47;;;5.68;62.99
80749;BME280;70145;53.746;9.970;2023-11-21T03:20:20;100990.50;;;5.68;62.79
80749;BME280;70145;53.746;9.970;2023-11-21T03:22:45;100990.22;;;5.57;62.87
80749;BME280;70145;53.746;9.970;2023-11-21T03:25:11;100992.22;;;5.53;62.65
80749;BME280;70145;53.746;9.970;2023-11-21T03:27:36;101000.53;;;5.49;62.67
80749;BME280;70145;53.746;9.970;2023-11-21T03:30:02;100998.41;;;5.54;62.88
80749;BME280;70145;53.746;9.970;2023-11-21T03:32:28;101003.66;;;5.55;62.84
80749;BME280;70145;53.746;9.970;2023-11-21T03:34:57;101004.72;;;5.53;62.98
80749;BME280;70145;53.746;9.970;2023-11-21T03:37:23;101009.19;;;5.52;62.96
80749;BME280;70145;53.746;9.970;2023-11-21T03:39:50;101012.56;;;5.56;62.67
80749;BME280;70145;53.746;9.970;2023-11-21T03:42:15;101019.88;;;5.52;62.57
80749;BME280;70145;53.746;9.970;2023-11-21T03:44:40;101019.22;;;5.49;62.55
80749;BME280;70145;53.746;9.970;2023-11-21T03:47:06;101026.88;;;5.55;62.63
80749;BME280;70145;53.746;9.970;2023-11-21T03:49:31;101026.44;;;5.47;62.92
80749;BME280;70145;53.746;9.970;2023-11-21T03:51:57;101037.91;;;5.49;62.79
80749;BME280;70145;53.746;9.970;2023-11-21T03:54:22;101035.16;;;5.50;62.48
80749;BME280;70145;53.746;9.970;2023-11-21T03:56:47;101040.41;;;5.52;62.63
80749;BME280;70145;53.746;9.970;2023-11-21T03:59:12;101051.09;;;5.52;62.48
80749;BME280;70145;53.746;9.970;2023-11-21T04:01:38;101050.09;;;5.39;62.52
80749;BME280;70145;53.746;9.970;2023-11-21T04:04:03;101051.63;;;5.43;62.39
80749;BME280;70145;53.746;9.970;2023-11-21T04:06:29;101051.03;;;5.38;62.77
80749;BME280;70145;53.746;9.970;2023-11-21T04:08:54;101055.16;;;5.43;62.84
80749;BME280;70145;53.746;9.970;2023-11-21T04:11:19;101059.47;;;5.46;62.16
80749;BME280;70145;53.746;9.970;2023-11-21T04:13:45;101062.13;;;5.46;62.45
80749;BME280;70145;53.746;9.970;2023-11-21T04:16:12;101067.47;;;5.46;62.28
80749;BME280;70145;53.746;9.970;2023-11-21T04:18:38;101074.03;;;5.40;62.07
80749;BME280;70145;53.746;9.970;2023-11-21T04:21:05;101073.09;;;5.41;62.24
80749;BME280;70145;53.746;9.970;2023-11-21T04:23:30;101064.97;;;5.43;62.17
80749;BME280;70145;53.746;9.970;2023-11-21T04:25:58;101073.97;;;5.42;62.49
80749;BME280;70145;53.746;9.970;2023-11-21T04:28:24;101082.06;;;5.40;62.30
80749;BME280;70145;53.746;9.970;2023-11-21T04:30:52;101082.72;;;5.44;62.44
80749;BME280;70145;53.746;9.970;2023-11-21T04:33:17;101092.47;;;5.45;62.42
80749;BME280;70145;53.746;9.970;2023-11-21T04:35:42;101089.13;;;5.41;62.30
80749;BME280;70145;53.746;9.970;2023-11-21T04:38:08;101095.41;;;5.40;61.98
80749;BME280;70145;53.746;9.970;2023-11-21T04:40:33;101092.66;;;5.42;62.05
80749;BME280;70145;53.746;9.970;2023-11-21T04:42:58;101099.28;;;5.35;61.82
80749;BME280;70145;53.746;9.970;2023-11-21T04:45:24;101089.28;;;5.38;62.02
80749;BME280;70145;53.746;9.970;2023-11-21T04:47:49;101104.44;;;5.38;61.89
80749;BME280;70145;53.746;9.970;2023-11-21T04:50:15;101113.25;;;5.40;62.38
80749;BME280;70145;53.746;9.970;2023-11-21T04:52:40;101112.28;;;5.41;62.12
80749;BME280;70145;53.746;9.970;2023-11-21T04:55:05;101112.09;;;5.44;61.98
80749;BME280;70145;53.746;9.970;2023-11-21T04:57:35;101120.06;;;5.30;61.80
80749;BME280;70145;53.746;9.970;2023-11-21T05:00:00;101120.06;;;5.30;61.65
80749;BME280;70145;53.746;9.970;2023-11-21T05:02:25;101127.91;;;5.33;61.74
80749;BME280;70145;53.746;9.970;2023-11-21T05:04:50;101127.03;;;5.32;62.10
80749;BME280;70145;53.746;9.970;2023-11-21T05:07:16;101132.19;;;5.35;61.66
80749;BME280;70145;53.746;9.970;2023-11-21T05:09:42;101138.41;;;5.36;61.42
80749;BME280;70145;53.746;9.970;2023-11-21T05:12:09;101138.31;;;5.37;61.86
80749;BME280;70145;53.746;9.970;2023-11-21T05:14:34;101152.44;;;5.39;61.67
80749;BME280;70145;53.746;9.970;2023-11-21T05:16:59;101136.31;;;5.41;61.43
80749;BME280;70145;53.746;9.970;2023-11-21T05:19:25;101144.50;;;5.38;61.63
80749;BME280;70145;53.746;9.970;2023-11-21T05:21:50;101141.56;;;5.42;61.67
80749;BME280;70145;53.746;9.970;2023-11-21T05:24:15;101144.34;;;5.41;61.05
80749;BME280;70145;53.746;9.970;2023-11-21T05:26:41;101150.56;;;5.41;61.49
80749;BME280;70145;53.746;9.970;2023-11-21T05:29:06;101146.00;;;5.43;61.60
80749;BME280;70145;53.746;9.970;2023-11-21T05:31:31;101143.16;;;5.46;61.66
80749;BME280;70145;53.746;9.970;2023-11-21T05:33:57;101148.66;;;5.43;61.24
80749;BME280;70145;53.746;9.970;2023-11-21T05:36:22;101158.31;;;5.46;61.68
80749;BME280;70145;53.746;9.970;2023-11-21T05:38:47;101163.91;;;5.41;60.91
80749;BME280;70145;53.746;9.970;2023-11-21T05:41:12;101165.38;;;5.47;61.27
80749;BME280;70145;53.746;9.970;2023-11-21T05:43:39;101177.75;;;5.48;61.26
80749;BME280;70145;53.746;9.970;2023-11-21T05:46:04;101181.22;;;5.50;60.92
80749;BME280;70145;53.746;9.970;2023-11-21T05:48:30;101187.34;;;5.52;61.40
80749;BME280;70145;53.746;9.970;2023-11-21T05:50:56;101197.06;;;5.53;61.15
80749;BME280;70145;53.746;9.970;2023-11-21T05:53:21;101205.88;;;5.55;60.98
80749;BME280;70145;53.746;9.970;2023-11-21T05:55:47;101214.81;;;5.54;61.38
80749;BME280;70145;53.746;9.970;2023-11-21T05:58:13;101211.22;;;5.55;60.89
80749;BME280;70145;53.746;9.970;2023-11-21T06:00:38;101220.00;;;5.57;61.15
80749;BME280;70145;53.746;9.970;2023-11-21T06:03:04;101211.97;;;5.57;61.20
80749;BME280;70145;53.746;9.970;2023-11-21T06:05:32;101217.25;;;5.58;61.64
80749;BME280;70145;53.746;9.970;2023-11-21T06:07:58;101220.78;;;5.59;61.19
80749;BME280;70145;53.746;9.970;2023-11-21T06:10:25;101224.25;;;5.61;61.12
80749;BME280;70145;53.746;9.970;2023-11-21T06:12:51;101222.50;;;5.60;61.49
80749;BME280;70145;53.746;9.970;2023-11-21T06:15:16;101225.13;;;5.62;61.02
80749;BME280;70145;53.746;9.970;2023-11-21T06:17:44;101226.00;;;5.62;61.44
80749;BME280;70145;53.746;9.970;2023-11-21T06:20:11;101234.94;;;5.61;61.42
80749;BME280;70145;53.746;9.970;2023-11-21T06:22:40;101242.03;;;5.62;61.67
80749;BME280;70145;53.746;9.970;2023-11-21T06:25:06;101236.81;;;5.59;61.33
80749;BME280;70145;53.746;9.970;2023-11-21T06:27:38;101243.97;;;5.58;61.50
80749;BME280;70145;53.746;9.970;2023-11-21T06:30:04;101257.25;;;5.60;61.45
80749;BME280;70145;53.746;9.970;2023-11-21T06:32:30;101257.31;;;5.58;61.58
80749;BME280;70145;53.746;9.970;2023-11-21T06:34:56;101264.50;;;5.58;61.83
80749;BME280;70145;53.746;9.970;2023-11-21T06:37:24;101263.63;;;5.57;61.71
80749;BME280;70145;53.746;9.970;2023-11-21T06:39:49;101278.03;;;5.55;61.48
80749;BME280;70145;53.746;9.970;2023-11-21T06:42:17;101285.09;;;5.56;61.77
80749;BME280;70145;53.746;9.970;2023-11-21T06:44:44;101294.81;;;5.57;61.89
80749;BME280;70145;53.746;9.970;2023-11-21T06:47:10;101285.00;;;5.57;61.69
80749;BME280;70145;53.746;9.970;2023-11-21T06:49:35;101301.03;;;5.57;61.44
80749;BME280;70145;53.746;9.970;2023-11-21T06:52:01;101298.28;;;5.59;61.77
80749;BME280;70145;53.746;9.970;2023-11-21T06:54:28;101300.94;;;5.59;61.52
80749;BME280;70145;53.746;9.970;2023-11-21T06:56:54;101308.88;;;5.61;61.39
80749;BME280;70145;53.746;9.970;2023-11-21T06:59:19;101311.56;;;5.61;61.50
80749;BME280;70145;53.746;9.970;2023-11-21T07:01:45;101309.75;;;5.61;61.69
80749;BME280;70145;53.746;9.970;2023-11-21T07:04:10;101329.34;;;5.62;61.61
80749;BME280;70145;53.746;9.970;2023-11-21T07:06:35;101326.66;;;5.62;61.89
80749;BME280;70145;53.746;9.970;2023-11-21T07:09:00;101335.56;;;5.62;61.89
80749;BME280;70145;53.746;9.970;2023-11-21T07:11:27;101336.56;;;5.60;62.04
80749;BME280;70145;53.746;9.970;2023-11-21T07:13:52;101346.38;;;5.59;61.97
80749;BME280;70145;53.746;9.970;2023-11-21T07:16:18;101356.19;;;5.58;62.06
80749;BME280;70145;53.746;9.970;2023-11-21T07:18:44;101356.09;;;5.60;61.68
80749;BME280;70145;53.746;9.970;2023-11-21T07:21:09;101364.28;;;5.57;62.04
80749;BME280;70145;53.746;9.970;2023-11-21T07:23:37;101366.03;;;5.58;61.84
80749;BME280;70145;53.746;9.970;2023-11-21T07:26:02;101365.16;;;5.57;61.84
80749;BME280;70145;53.746;9.970;2023-11-21T07:28:28;101369.63;;;5.57;61.90
80749;BME280;70145;53.746;9.970;2023-11-21T07:30:54;101375.13;;;5.54;62.04
80749;BME280;70145;53.746;9.970;2023-11-21T07:33:19;101380.47;;;5.54;62.31
80749;BME280;70145;53.746;9.970;2023-11-21T07:35:44;101384.91;;;5.55;62.14
80749;BME280;70145;53.746;9.970;2023-11-21T07:38:09;101376.00;;;5.54;61.84
80749;BME280;70145;53.746;9.970;2023-11-21T07:40:35;101377.81;;;5.54;62.22
80749;BME280;70145;53.746;9.970;2023-11-21T07:43:00;101379.56;;;5.55;62.07
80749;BME280;70145;53.746;9.970;2023-11-21T07:45:26;101383.16;;;5.54;62.13
80749;BME280;70145;53.746;9.970;2023-11-21T07:47:53;101372.38;;;5.55;62.01
80749;BME280;70145;53.746;9.970;2023-11-21T07:50:19;101383.94;;;5.56;62.13
80749;BME280;70145;53.746;9.970;2023-11-21T07:52:45;101391.16;;;5.54;61.85
80749;BME280;70145;53.746;9.970;2023-11-21T07:55:11;101389.38;;;5.54;62.17
80749;BME280;70145;53.746;9.970;2023-11-21T07:57:36;101391.16;;;5.54;62.34
80749;BME280;70145;53.746;9.970;2023-11-21T08:00:02;101393.84;;;5.54;62.10
80749;BME280;70145;53.746;9.970;2023-11-21T08:02:28;101405.56;;;5.51;62.35
80749;BME280;70145;53.746;9.970;2023-11-21T08:04:54;101413.56;;;5.51;62.05
80749;BME280;70145;53.746;9.970;2023-11-21T08:07:21;101409.44;;;5.46;62.43
80749;BME280;70145;53.746;9.970;2023-11-21T08:09:47;101411.31;;;5.44;62.20
80749;BME280;70145;53.746;9.970;2023-11-21T08:12:14;101413.97;;;5.44;62.11
80749;BME280;70145;53.746;9.970;2023-11-21T08:14:40;101415.81;;;5.43;62.09
80749;BME280;70145;53.746;9.970;2023-11-21T08:17:05;101414.84;;;5.44;62.07
80749;BME280;70145;53.746;9.970;2023-11-21T08:19:31;101432.59;;;5.45;61.90
80749;BME280;70145;53.746;9.970;2023-11-21T08:21:58;101441.31;;;5.49;62.01
80749;BME280;70145;53.746;9.970;2023-11-21T08:24:24;101433.22;;;5.50;61.93
80749;BME280;70145;53.746;9.970;2023-11-21T08:26:49;101443.91;;;5.50;62.06
80749;BME280;70145;53.746;9.970;2023-11-21T08:29:16;101445.63;;;5.51;61.94
80749;BME280;70145;53.746;9.970;2023-11-21T08:31:42;101445.72;;;5.50;61.83
80749;BME280;70145;53.746;9.970;2023-11-21T08:34:07;101448.38;;;5.50;62.26
80749;BME280;70145;53.746;9.970;2023-11-21T08:36:33;101449.25;;;5.50;62.23
80749;BME280;70145;53.746;9.970;2023-11-21T08:38:59;101451.06;;;5.50;62.24
80749;BME280;70145;53.746;9.970;2023-11-21T08:41:24;101451.53;;;5.41;61.94
80749;BME280;70145;53.746;9.970;2023-11-21T08:43:50;101463.97;;;5.42;62.09
80749;BME280;70145;53.746;9.970;2023-11-21T08:46:16;101466.41;;;5.46;62.18
80749;BME280;70145;53.746;9.970;2023-11-21T08:48:43;101472.59;;;5.47;62.38
80749;BME280;70145;53.746;9.970;2023-11-21T08:51:10;101471.56;;;5.49;62.25
80749;BME280;70145;53.746;9.970;2023-11-21T08:53:35;101476.81;;;5.51;61.92
80749;BME280;70145;53.746;9.970;2023-11-21T08:56:00;101487.34;;;5.54;62.35
80749;BME280;70145;53.746;9.970;2023-11-21T08:58:26;101493.56;;;5.54;62.26
80749;BME280;70145;53.746;9.970;2023-11-21T09:00:51;101486.50;;;5.53;61.72
80749;BME280;70145;53.746;9.970;2023-11-21T09:03:16;101489.94;;;5.55;62.17
80749;BME280;70145;53.746;9.970;2023-11-21T09:05:42;101492.47;;;5.58;61.74
80749;BME280;70145;53.746;9.970;2023-11-21T09:08:07;101499.63;;;5.58;62.01
80749;BME280;70145;53.746;9.970;2023-11-21T09:10:35;101507.56;;;5.60;61.98
80749;BME280;70145;53.746;9.970;2023-11-21T09:13:02;101506.78;;;5.57;62.04
80749;BME280;70145;53.746;9.970;2023-11-21T09:15:27;101512.91;;;5.60;62.25
80749;BME280;70145;53.746;9.970;2023-11-21T09:17:53;101518.09;;;5.63;62.39
80749;BME280;70145;53.746;9.970;2023-11-21T09:20:18;101507.50;;;5.61;61.99
80749;BME280;70145;53.746;9.970;2023-11-21T09:22:43;101515.34;;;5.64;61.75
80749;BME280;70145;53.746;9.970;2023-11-21T09:25:10;101535.09;;;5.62;61.49
80749;BME280;70145;53.746;9.970;2023-11-21T09:27:35;101529.09;;;5.57;61.82
80749;BME280;70145;53.746;9.970;2023-11-21T09:30:03;101535.13;;;5.60;61.76
80749;BME280;70145;53.746;9.970;2023-11-21T09:32:30;101541.59;;;5.56;61.75
80749;BME280;70145;53.746;9.970;2023-11-21T09:34:56;101547.91;;;5.55;61.74
80749;BME280;70145;53.746;9.970;2023-11-21T09:37:23;101559.34;;;5.40;61.34
80749;BME280;70145;53.746;9.970;2023-11-21T09:39:49;101558.97;;;5.30;62.01
80749;BME280;70145;53.746;9.970;2023-11-21T09:45:24;101577.72;;;5.29;62.00
80749;BME280;70145;53.746;9.970;2023-11-21T09:47:52;101580.75;;;5.04;62.87
80749;BME280;70145;53.746;9.970;2023-11-21T09:50:18;101583.25;;;4.89;62.79
80749;BME280;70145;53.746;9.970;2023-11-21T09:55:55;101586.16;;;5.03;62.94
80749;BME280;70145;53.746;9.970;2023-11-21T09:58:21;101585.28;;;5.02;62.47
80749;BME280;70145;53.746;9.970;2023-11-21T10:00:57;101589.44;;;5.08;62.30
80749;BME280;70145;53.746;9.970;2023-11-21T10:03:24;101587.72;;;5.07;62.38
80749;BME280;70145;53.746;9.970;2023-11-21T10:05:50;101583.94;;;5.11;62.07
80749;BME280;70145;53.746;9.970;2023-11-21T10:08:19;101592.84;;;5.11;62.65
80749;BME280;70145;53.746;9.970;2023-11-21T10:10:49;101593.47;;;5.16;62.54
80749;BME280;70145;53.746;9.970;2023-11-21T10:13:17;101594.72;;;5.09;62.26
80749;BME280;70145;53.746;9.970;2023-11-21T10:15:43;101599.75;;;5.15;62.72
80749;BME280;70145;53.746;9.970;2023-11-21T10:18:14;101604.75;;;5.04;62.70
80749;BME280;70145;53.746;9.970;2023-11-21T10:20:44;101607.25;;;5.07;62.18
80749;BME280;70145;53.746;9.970;2023-11-21T10:23:18;101607.03;;;5.12;62.39
80749;BME280;70145;53.746;9.970;2023-11-21T10:25:44;101615.06;;;5.12;62.14
80749;BME280;70145;53.746;9.970;2023-11-21T10:28:09;101613.25;;;5.12;61.96
80749;BME280;70145;53.746;9.970;2023-11-21T10:30:36;101624.22;;;5.06;62.18
80749;BME280;70145;53.746;9.970;2023-11-21T10:33:03;101623.81;;;4.97;62.76
80749;BME280;70145;53.746;9.970;2023-11-21T10:35:43;101618.19;;;5.03;62.49
80749;BME280;70145;53.746;9.970;2023-11-21T10:38:12;101625.25;;;5.04;62.33
80749;BME280;70145;53.746;9.970;2023-11-21T10:40:39;101621.63;;;5.05;62.26
80749;BME280;70145;53.746;9.970;2023-11-21T10:43:07;101630.44;;;5.07;62.37
80749;BME280;70145;53.746;9.970;2023-11-21T10:45:38;101627.41;;;4.96;62.81
80749;BME280;70145;53.746;9.970;2023-11-21T10:48:08;101635.94;;;5.04;61.89
80749;BME280;70145;53.746;9.970;2023-11-21T10:50:34;101643.00;;;5.05;61.79
80749;BME280;70145;53.746;9.970;2023-11-21T10:53:03;101641.06;;;5.08;62.17
80749;BME280;70145;53.746;9.970;2023-11-21T10:55:30;101647.09;;;5.12;61.98
80749;BME280;70145;53.746;9.970;2023-11-21T10:57:58;101646.94;;;5.15;61.64
80749;BME280;70145;53.746;9.970;2023-11-21T11:00:26;101640.53;;;5.19;61.62
80749;BME280;70145;53.746;9.970;2023-11-21T11:02:52;101636.78;;;5.23;61.58
80749;BME280;70145;53.746;9.970;2023-11-21T11:05:23;101643.78;;;5.25;61.79
80749;BME280;70145;53.746;9.970;2023-11-21T11:07:58;101650.00;;;5.26;61.90
80749;BME280;70145;53.746;9.970;2023-11-21T11:10:27;101648.22;;;5.25;62.23
80749;BME280;70145;53.746;9.970;2023-11-21T11:12:54;101650.00;;;5.26;61.86
80749;BME280;70145;53.746;9.970;2023-11-21T11:15:20;101658.78;;;5.28;61.97
80749;BME280;70145;53.746;9.970;2023-11-21T11:17:46;101653.44;;;5.28;61.79
80749;BME280;70145;53.746;9.970;2023-11-21T11:20:14;101657.84;;;5.29;61.49
80749;BME280;70145;53.746;9.970;2023-11-21T11:26:01;101654.16;;;5.31;61.90
80749;BME280;70145;53.746;9.970;2023-11-21T11:28:50;101657.78;;;5.30;61.37
80749;BME280;70145;53.746;9.970;2023-11-21T11:31:45;101662.16;;;5.31;61.58
80749;BME280;70145;53.746;9.970;2023-11-21T11:34:19;101663.97;;;5.31;61.52
80749;BME280;70145;53.746;9.970;2023-11-21T11:36:52;101658.63;;;5.31;61.93
80749;BME280;70145;53.746;9.970;2023-11-21T11:42:02;101664.91;;;5.30;61.40
80749;BME280;70145;53.746;9.970;2023-11-21T11:52:39;101673.72;;;5.13;62.12
80749;BME280;70145;53.746;9.970;2023-11-21T11:55:13;101676.31;;;5.15;61.88
80749;BME280;70145;53.746;9.970;2023-11-21T11:57:42;101677.34;;;5.12;62.00
80749;BME280;70145;53.746;9.970;2023-11-21T12:00:16;101679.13;;;5.12;61.53
80749;BME280;70145;53.746;9.970;2023-11-21T12:02:51;101680.09;;;5.11;62.08
80749;BME280;70145;53.746;9.970;2023-11-21T12:05:18;101678.38;;;5.10;61.94
80749;BME280;70145;53.746;9.970;2023-11-21T12:07:54;101677.41;;;5.11;61.87
80749;BME280;70145;53.746;9.970;2023-11-21T12:10:26;101685.41;;;5.11;61.97
80749;BME280;70145;53.746;9.970;2023-11-21T12:12:57;101696.09;;;5.11;61.33
80749;BME280;70145;53.746;9.970;2023-11-21T12:15:24;101700.44;;;5.13;61.70
80749;BME280;70145;53.746;9.970;2023-11-21T12:17:51;101701.31;;;5.14;61.45
80749;BME280;70145;53.746;9.970;2023-11-21T12:20:21;101708.50;;;5.12;61.41
80749;BME280;70145;53.746;9.970;2023-11-21T12:22:49;101717.25;;;5.15;61.82
80749;BME280;70145;53.746;9.970;2023-11-21T12:27:51;101720.81;;;5.16;61.32
80749;BME280;70145;53.746;9.970;2023-11-21T12:30:18;101733.28;;;5.15;61.82
80749;BME280;70145;53.746;9.970;2023-11-21T12:32:47;101738.91;;;5.09;61.41
80749;BME280;70145;53.746;9.970;2023-11-21T12:35:13;101736.16;;;5.11;62.07
80749;BME280;70145;53.746;9.970;2023-11-21T12:37:40;101731.75;;;5.10;61.68
80749;BME280;70145;53.746;9.970;2023-11-21T12:40:07;101730.81;;;5.11;62.09
80749;BME280;70145;53.746;9.970;2023-11-21T12:42:48;101728.16;;;5.11;61.48
80749;BME280;70145;53.746;9.970;2023-11-21T12:48:00;101744.16;;;5.11;61.74
80749;BME280;70145;53.746;9.970;2023-11-21T12:50:30;101747.78;;;5.10;62.09
80749;BME280;70145;53.746;9.970;2023-11-21T12:53:05;101742.38;;;5.11;61.65
80749;BME280;70145;53.746;9.970;2023-11-21T12:55:34;101749.59;;;5.09;61.35
80749;BME280;70145;53.746;9.970;2023-11-21T12:58:04;101744.16;;;5.11;61.98
80749;BME280;70145;53.746;9.970;2023-11-21T13:00:45;101750.59;;;5.07;61.83
80749;BME280;70145;53.746;9.970;2023-11-21T13:03:11;101752.31;;;5.08;61.94
80749;BME280;70145;53.746;9.970;2023-11-21T13:05:44;101758.69;;;5.05;62.03
80749;BME280;70145;53.746;9.970;2023-11-21T13:08:11;101758.88;;;5.01;61.81
80749;BME280;70145;53.746;9.970;2023-11-21T13:10:40;101773.19;;;5.00;61.69
80749;BME280;70145;53.746;9.970;2023-11-21T13:13:07;101772.38;;;4.98;62.04
80749;BME280;70145;53.746;9.970;2023-11-21T13:15:40;101779.81;;;4.91;62.27
80749;BME280;70145;53.746;9.970;2023-11-21T13:18:08;101781.72;;;4.88;62.27
80749;BME280;70145;53.746;9.970;2023-11-21T13:20:36;101786.13;;;4.89;62.05
80749;BME280;70145;53.746;9.970;2023-11-21T13:23:07;101780.84;;;4.87;62.19